Time;durP1;ratioP1;P1;durP2;ratioP2;P2;SDS_P1;SDS_P2;PMS_P1;PMS_P2;Temp;Humidity;BMP_temperature;BMP_pressure;BME280_temperature;BME280_humidity;BME280_pressure;Samples;Min_cycle;Max_cycle;Signal;HPM_P1;HPM_P2
2021/08/01 00:01:05;;;;;;;15.23;11.18;;;;;;;21.45;65.48;98975.62;1752879;82;21071;-66
2021/08/01 00:03:32;;;;;;;15.68;11.10;;;;;;;21.47;65.43;98969.13;1745012;82;21003;-66
2021/08/01 00:05:58;;;;;;;17.98;11.30;;;;;;;21.51;65.43;98977.52;1727422;82;21039;-66
2021/08/01 00:08:25;;;;;;;18.10;11.38;;;;;;;21.57;65.38;98971.94;1733048;82;21666;-66
2021/08/01 00:10:57;;;;;;;14.35;12.00;;;;;;;21.56;65.48;98968.94;1751406;82;21015;-66
2021/08/01 00:13:24;;;;;;;15.85;11.53;;;;;;;21.55;65.57;98968.13;1753067;82;21015;-67
2021/08/01 00:15:51;;;;;;;16.02;11.43;;;;;;;21.55;65.78;98971.48;1727297;82;21011;-66
2021/08/01 00:18:17;;;;;;;19.70;11.68;;;;;;;21.57;66.03;98969.17;1749078;82;21464;-66
2021/08/01 00:20:44;;;;;;;17.67;11.43;;;;;;;21.60;66.06;98960.94;1752950;82;21047;-64
2021/08/01 00:23:11;;;;;;;14.50;11.63;;;;;;;21.61;65.96;98962.52;1752870;82;21094;-64
2021/08/01 00:25:39;;;;;;;17.57;11.90;;;;;;;21.60;66.31;98955.98;1729816;82;21035;-64
2021/08/01 00:28:05;;;;;;;15.98;11.40;;;;;;;21.54;66.58;98958.21;1724782;82;21090;-64
2021/08/01 00:30:32;;;;;;;17.10;11.75;;;;;;;21.47;66.75;98961.44;1723189;83;21031;-66
2021/08/01 00:32:59;;;;;;;13.80;11.53;;;;;;;21.45;66.57;98964.55;1694714;83;21469;-66
2021/08/01 00:35:27;;;;;;;17.37;11.63;;;;;;;21.41;66.61;98967.82;1736439;82;21015;-67
2021/08/01 00:37:55;;;;;;;16.65;11.70;;;;;;;21.34;66.82;98968.47;1736733;82;21054;-66
2021/08/01 00:40:22;;;;;;;17.60;12.10;;;;;;;21.29;67.08;98966.58;1745473;82;21557;-66
2021/08/01 00:42:50;;;;;;;16.73;11.50;;;;;;;21.24;67.27;98960.73;1723256;82;21063;-66
2021/08/01 00:45:17;;;;;;;16.40;11.45;;;;;;;21.24;67.46;98960.73;1749156;82;21004;-66
2021/08/01 00:47:43;;;;;;;16.97;11.65;;;;;;;21.26;67.56;98956.20;1748893;80;21104;-66
2021/08/01 00:50:11;;;;;;;15.88;11.03;;;;;;;21.26;67.66;98952.86;1774167;80;21620;-66
2021/08/01 00:52:39;;;;;;;13.22;11.50;;;;;;;21.25;67.71;98953.23;1780422;80;21075;-66
2021/08/01 00:55:09;;;;;;;15.55;11.68;;;;;;;21.23;67.79;98963.27;1722859;82;20984;-66
2021/08/01 00:57:36;;;;;;;15.65;11.93;;;;;;;21.18;67.84;98964.95;1720156;82;21109;-66
2021/08/01 01:00:13;;;;;;;14.85;11.15;;;;;;;21.11;68.15;98966.74;1747290;81;21007;-66
2021/08/01 01:02:37;;;;;;;15.40;11.10;;;;;;;21.00;68.46;98972.57;1720934;82;21145;-66
2021/08/01 01:05:10;;;;;;;16.40;11.30;;;;;;;20.84;70.09;98984.44;1749450;82;20999;-66
2021/08/01 01:08:06;;;;;;;16.77;11.55;;;;;;;20.63;70.70;98977.57;1739413;82;21055;-66
2021/08/01 01:10:42;;;;;;;16.02;11.08;;;;;;;20.49;71.30;98975.25;1715242;82;21019;-66
2021/08/01 01:13:14;;;;;;;17.35;11.70;;;;;;;20.44;71.56;98967.81;1747974;82;21035;-66
2021/08/01 01:15:53;;;;;;;17.37;11.65;;;;;;;20.44;71.79;98952.61;1751008;82;21007;-66
2021/08/01 01:18:29;;;;;;;14.38;11.05;;;;;;;20.42;71.94;98964.00;1692645;83;21038;-66
2021/08/01 01:21:36;;;;;;;17.92;12.00;;;;;;;20.38;72.08;98956.77;1696287;83;21589;-67
2021/08/01 01:24:20;;;;;;;15.23;11.08;;;;;;;20.32;72.61;98960.38;1720106;82;21101;-66
2021/08/01 01:27:18;;;;;;;17.87;11.48;;;;;;;20.22;73.05;98954.77;1738289;82;21051;-66
2021/08/01 01:30:01;;;;;;;14.25;11.40;;;;;;;20.16;73.22;98953.98;1746263;81;21051;-66
2021/08/01 01:32:38;;;;;;;13.55;11.35;;;;;;;20.14;73.49;98952.16;1718792;83;21150;-66
2021/08/01 01:35:18;;;;;;;14.10;11.88;;;;;;;20.20;73.58;98948.78;1709915;84;21024;-66
2021/08/01 01:37:50;;;;;;;19.05;12.90;;;;;;;20.19;73.66;98944.41;1735732;82;21074;-66
2021/08/01 01:40:22;;;;;;;16.80;12.13;;;;;;;20.16;73.56;98940.16;1686047;82;21024;-66
2021/08/01 01:42:53;;;;;;;17.05;11.97;;;;;;;20.19;73.45;98936.11;1716140;82;21036;-66
2021/08/01 01:45:22;;;;;;;16.35;11.60;;;;;;;20.21;73.20;98944.88;1709384;84;21039;-66
2021/08/01 01:47:52;;;;;;;16.87;11.75;;;;;;;20.20;73.01;98934.16;1709528;84;21554;-66
2021/08/01 01:50:20;;;;;;;18.30;11.40;;;;;;;20.14;73.01;98929.48;1726701;82;21083;-66
2021/08/01 01:52:51;;;;;;;15.08;11.43;;;;;;;20.13;72.92;98923.72;1724914;82;21581;-66
2021/08/01 01:55:20;;;;;;;13.40;11.20;;;;;;;20.13;72.90;98927.06;1713947;82;20988;-66
2021/08/01 01:57:49;;;;;;;14.95;11.55;;;;;;;20.10;73.07;98935.48;1739327;82;21055;-66
2021/08/01 02:00:18;;;;;;;15.55;11.22;;;;;;;20.06;73.28;98924.11;1683713;85;21525;-66
2021/08/01 02:02:44;;;;;;;14.83;11.12;;;;;;;20.09;73.41;98929.73;1671032;85;21079;-66
2021/08/01 02:05:13;;;;;;;18.07;11.60;;;;;;;20.12;73.31;98932.38;1682457;85;21550;-66
2021/08/01 02:07:56;;;;;;;13.62;11.03;;;;;;;20.12;73.18;98935.15;1653441;86;21795;-66
2021/08/01 02:10:54;;;;;;;15.83;11.57;;;;;;;20.14;73.04;98933.63;1667585;85;21008;-66
2021/08/01 02:13:27;;;;;;;16.37;11.30;;;;;;;20.09;73.13;98922.82;1661541;85;21075;-66
2021/08/01 02:15:56;;;;;;;14.47;11.28;;;;;;;20.02;73.39;98926.77;1669680;85;21048;-66
2021/08/01 02:18:43;;;;;;;15.10;11.10;;;;;;;20.02;73.55;98924.59;1676371;85;21546;-66
2021/08/01 02:21:09;;;;;;;16.77;11.33;;;;;;;20.04;73.52;98924.48;1683049;85;21079;-66
2021/08/01 02:23:42;;;;;;;15.40;11.50;;;;;;;20.06;73.68;98915.25;1701356;84;21074;-66
2021/08/01 02:26:11;;;;;;;14.58;11.30;;;;;;;20.06;73.63;98922.16;1681492;84;21110;-66
2021/08/01 02:28:38;;;;;;;15.80;11.55;;;;;;;20.05;73.61;98922.52;1691501;84;21031;-66
2021/08/01 02:31:05;;;;;;;21.40;11.48;;;;;;;20.05;73.69;98933.58;1698924;84;21581;-66
2021/08/01 02:33:33;;;;;;;14.35;11.00;;;;;;;19.99;73.86;98930.25;1696493;83;21011;-66
2021/08/01 02:36:11;;;;;;;12.78;11.15;;;;;;;19.97;74.08;98930.38;1656002;85;21111;-66
2021/08/01 02:38:38;;;;;;;16.50;11.12;;;;;;;20.03;74.13;98939.44;1688490;83;21538;-66
2021/08/01 02:41:08;;;;;;;16.25;10.72;;;;;;;20.07;74.02;98934.81;1717528;83;21035;-66
2021/08/01 02:43:35;;;;;;;15.10;10.90;;;;;;;20.09;73.98;98930.30;1735640;82;21027;-66
2021/08/01 02:46:02;;;;;;;15.15;10.53;;;;;;;20.11;74.05;98944.02;1691065;83;21075;-66
2021/08/01 02:48:29;;;;;;;13.32;10.58;;;;;;;20.16;74.13;98947.07;1717506;83;21569;-66
2021/08/01 02:51:04;;;;;;;12.98;10.00;;;;;;;20.15;74.13;98938.58;1717367;83;21118;-66
2021/08/01 02:53:39;;;;;;;14.00;10.88;;;;;;;20.12;74.25;98940.06;1718631;82;21082;-66
2021/08/01 02:56:06;;;;;;;15.83;10.72;;;;;;;20.06;74.46;98934.59;1744176;82;21118;-66
2021/08/01 02:58:33;;;;;;;14.15;10.55;;;;;;;20.05;74.93;98941.86;1726169;82;21047;-66
2021/08/01 03:00:59;;;;;;;14.85;9.95;;;;;;;20.06;74.92;98933.20;1717442;83;21075;-66
2021/08/01 03:03:27;;;;;;;13.60;10.15;;;;;;;20.02;74.73;98929.53;1692130;82;21051;-66
2021/08/01 03:05:54;;;;;;;12.28;10.38;;;;;;;20.08;74.71;98936.44;1716067;82;21467;-66
2021/08/01 03:08:22;;;;;;;13.55;10.15;;;;;;;20.10;74.81;98936.88;1747042;82;21067;-66
2021/08/01 03:10:51;;;;;;;12.90;10.05;;;;;;;20.10;74.92;98938.25;1747019;82;21004;-66
2021/08/01 03:13:18;;;;;;;13.83;9.83;;;;;;;20.10;74.98;98945.73;1746476;82;21061;-66
2021/08/01 03:15:46;;;;;;;12.63;10.23;;;;;;;20.12;74.98;98944.21;1745606;82;21016;-66
2021/08/01 03:18:13;;;;;;;16.27;10.20;;;;;;;20.13;75.01;98943.06;1739552;82;20979;-66
2021/08/01 03:20:40;;;;;;;15.65;10.88;;;;;;;20.16;75.12;98949.27;1717361;83;21062;-66
2021/08/01 03:23:22;;;;;;;13.08;10.05;;;;;;;20.22;75.40;98952.59;1737231;82;21027;-66
2021/08/01 03:26:07;;;;;;;12.78;10.55;;;;;;;20.30;75.55;98964.87;1728455;82;21118;-66
2021/08/01 03:28:35;;;;;;;13.25;10.18;;;;;;;20.37;75.45;98960.11;1732061;82;21066;-66
2021/08/01 03:31:02;;;;;;;15.88;10.18;;;;;;;20.45;75.28;98968.02;1745888;82;21031;-66
2021/08/01 03:33:31;;;;;;;12.55;10.80;;;;;;;20.51;75.02;98969.38;1723839;81;21649;-66
2021/08/01 03:35:58;;;;;;;14.20;10.40;;;;;;;20.55;74.86;98966.09;1744315;82;21104;-66
2021/08/01 03:38:26;;;;;;;15.15;10.78;;;;;;;20.50;74.87;98964.42;1701615;82;21054;-66
2021/08/01 03:41:11;;;;;;;13.83;10.25;;;;;;;20.48;74.97;98965.34;1724943;82;21510;-66
2021/08/01 03:43:38;;;;;;;16.40;10.08;;;;;;;20.54;74.96;98966.70;1742756;82;21003;-66
2021/08/01 03:46:04;;;;;;;13.05;10.15;;;;;;;20.55;75.00;98964.14;1745595;82;21039;-66
2021/08/01 03:48:33;;;;;;;12.45;10.40;;;;;;;20.63;75.14;98970.66;1750971;82;21556;-66
2021/08/01 03:50:59;;;;;;;14.13;10.65;;;;;;;20.74;75.22;98974.50;1737934;82;21113;-66
2021/08/01 03:53:26;;;;;;;18.23;11.10;;;;;;;20.92;75.33;98981.27;1751963;82;20966;-66
2021/08/01 03:55:52;;;;;;;13.50;10.30;;;;;;;21.06;74.89;98980.23;1743734;82;21011;-66
2021/08/01 03:58:18;;;;;;;14.35;10.58;;;;;;;21.08;74.46;98979.89;1752988;82;20998;-66
2021/08/01 04:00:48;;;;;;;14.60;10.45;;;;;;;21.07;74.28;98986.00;1738952;82;21482;-66
2021/08/01 04:03:15;;;;;;;12.28;10.15;;;;;;;21.11;73.92;98993.84;1726750;82;20956;-66
2021/08/01 04:05:41;;;;;;;12.07;10.03;;;;;;;21.13;73.89;98988.73;1723755;82;21028;-66
2021/08/01 04:08:09;;;;;;;13.40;10.82;;;;;;;21.25;73.90;98991.98;1723548;82;21011;-66
2021/08/01 04:10:37;;;;;;;14.83;10.50;;;;;;;21.37;74.03;98986.31;1738247;82;21541;-66
2021/08/01 04:13:05;;;;;;;14.87;10.58;;;;;;;21.48;74.09;98990.13;1728493;82;20980;-66
2021/08/01 04:15:31;;;;;;;11.57;10.30;;;;;;;21.63;74.17;98978.20;1729269;82;21003;-66
2021/08/01 04:18:02;;;;;;;14.65;9.83;;;;;;;21.91;74.00;98979.98;1736097;82;21680;-66
2021/08/01 04:20:27;;;;;;;13.45;10.20;;;;;;;22.19;73.45;98986.09;1734940;82;21046;-66
2021/08/01 04:22:53;;;;;;;15.85;10.00;;;;;;;22.51;72.79;98983.34;1740748;82;21664;-66
2021/08/01 04:25:20;;;;;;;13.98;10.23;;;;;;;22.83;72.21;98981.16;1723885;82;21344;-66
2021/08/01 04:27:47;;;;;;;11.00;9.60;;;;;;;23.17;70.70;98977.92;1723115;82;21070;-66
2021/08/01 04:30:14;;;;;;;14.33;10.05;;;;;;;23.44;69.60;98982.34;1731614;82;21003;-66
2021/08/01 04:32:40;;;;;;;16.50;10.38;;;;;;;23.64;67.83;98976.86;1727947;82;21652;-66
2021/08/01 04:35:08;;;;;;;14.55;10.40;;;;;;;23.83;67.06;98974.53;1738591;82;20992;-66
2021/08/01 04:37:34;;;;;;;14.60;10.18;;;;;;;24.04;66.25;98979.55;1722269;82;21039;-67
2021/08/01 04:40:01;;;;;;;11.55;9.78;;;;;;;24.23;65.57;98973.23;1715655;82;21475;-66
2021/08/01 04:42:27;;;;;;;12.35;9.95;;;;;;;24.44;65.04;98974.08;1711660;82;22287;-66
2021/08/01 04:44:55;;;;;;;12.33;9.95;;;;;;;24.58;64.34;98966.45;1736784;82;21043;-66
2021/08/01 04:47:23;;;;;;;14.15;9.63;;;;;;;24.57;63.36;98971.22;1737035;82;21079;-66
2021/08/01 04:49:52;;;;;;;12.58;10.63;;;;;;;24.55;63.07;98971.41;1723511;82;21491;-66
2021/08/01 04:52:19;;;;;;;12.80;10.05;;;;;;;24.57;63.22;98967.05;1715206;82;21018;-67
2021/08/01 04:54:47;;;;;;;14.28;9.60;;;;;;;24.71;62.67;98966.38;1736905;82;21091;-66
2021/08/01 04:57:14;;;;;;;13.75;9.78;;;;;;;24.89;62.10;98963.77;1731867;82;21530;-66
2021/08/01 04:59:40;;;;;;;11.97;9.63;;;;;;;25.32;61.77;98966.28;1717423;82;21473;-66
2021/08/01 05:02:07;;;;;;;11.63;9.15;;;;;;;25.32;61.77;98966.28;1733614;82;21059;-66
2021/08/01 05:04:33;;;;;;;14.65;9.93;;;;;;;25.52;60.62;98959.26;1722432;82;21035;-66
2021/08/01 05:07:00;;;;;;;13.20;9.55;;;;;;;25.70;59.38;98969.91;1710288;82;21087;-66
2021/08/01 05:09:26;;;;;;;13.40;10.60;;;;;;;25.88;58.22;98968.59;1710421;82;21018;-66
2021/08/01 05:11:53;;;;;;;13.80;9.88;;;;;;;25.97;57.11;98967.03;1735365;82;21562;-66
2021/08/01 05:14:19;;;;;;;12.60;10.23;;;;;;;26.09;57.64;98965.89;1706185;82;21040;-66
2021/08/01 05:16:46;;;;;;;11.75;10.23;;;;;;;26.31;57.24;98963.40;1734848;81;21064;-66
2021/08/01 05:19:12;;;;;;;12.35;9.83;;;;;;;26.48;56.14;98964.63;1718831;82;21020;-66
2021/08/01 05:21:39;;;;;;;13.65;9.63;;;;;;;26.53;56.09;98967.03;1712214;82;21000;-66
2021/08/01 05:24:05;;;;;;;14.07;9.70;;;;;;;26.62;55.26;98961.84;1724598;82;21103;-66
2021/08/01 05:26:32;;;;;;;12.80;10.00;;;;;;;26.84;55.60;98969.08;1737890;82;21043;-67
2021/08/01 05:28:58;;;;;;;14.73;9.98;;;;;;;27.11;54.48;98961.88;1738069;82;21459;-66
2021/08/01 05:31:25;;;;;;;12.23;9.60;;;;;;;27.21;53.87;98968.65;1719550;82;21071;-66
2021/08/01 05:33:51;;;;;;;16.73;9.75;;;;;;;27.36;53.68;98968.03;1737122;81;21047;-65
2021/08/01 05:36:17;;;;;;;11.97;9.40;;;;;;;27.48;53.81;98969.05;1752821;82;21082;-65
2021/08/01 05:38:44;;;;;;;12.68;10.03;;;;;;;27.60;53.59;98963.81;1734655;82;21085;-65
2021/08/01 05:41:15;;;;;;;13.18;9.50;;;;;;;27.78;53.14;98960.16;1734376;82;21605;-64
2021/08/01 05:43:42;;;;;;;14.25;9.80;;;;;;;27.84;53.31;98964.95;1750946;82;21474;-64
2021/08/01 05:46:12;;;;;;;11.88;9.58;;;;;;;27.93;52.54;98965.30;1725221;82;21122;-64
2021/08/01 05:48:38;;;;;;;11.60;9.60;;;;;;;27.99;52.18;98960.06;1674843;85;21486;-63
2021/08/01 05:51:06;;;;;;;17.50;11.50;;;;;;;28.03;52.10;98958.05;1747398;82;21030;-64
2021/08/01 05:53:33;;;;;;;13.10;10.38;;;;;;;28.15;52.11;98954.23;1752678;82;21065;-64
2021/08/01 05:56:09;;;;;;;13.55;10.95;;;;;;;28.33;52.28;98953.34;1732709;82;21043;-63
2021/08/01 05:58:37;;;;;;;14.85;9.38;;;;;;;28.41;52.02;98952.09;1723642;82;20979;-64
2021/08/01 06:01:10;;;;;;;13.80;8.98;;;;;;;28.49;51.66;98953.02;1723210;83;21073;-63
2021/08/01 06:03:38;;;;;;;12.98;9.53;;;;;;;28.42;51.44;98951.67;1724605;82;21455;-64
2021/08/01 06:06:14;;;;;;;13.90;9.70;;;;;;;28.34;51.85;98946.55;1744963;82;21046;-64
2021/08/01 06:08:45;;;;;;;13.20;9.70;;;;;;;28.32;52.66;98954.53;1729289;82;21064;-64
2021/08/01 06:11:12;;;;;;;13.30;9.38;;;;;;;28.45;51.85;98962.67;1723107;82;21070;-64
2021/08/01 06:13:39;;;;;;;11.15;9.08;;;;;;;28.63;52.03;98966.92;1736849;82;21011;-63
2021/08/01 06:16:10;;;;;;;11.20;8.85;;;;;;;28.81;51.97;98969.63;1733408;82;21098;-63
2021/08/01 06:18:37;;;;;;;10.75;8.98;;;;;;;29.03;51.00;98972.45;1669064;85;21084;-64
2021/08/01 06:21:09;;;;;;;9.85;8.83;;;;;;;29.00;50.34;98973.88;1740423;82;21051;-65
2021/08/01 06:23:36;;;;;;;11.93;8.93;;;;;;;28.93;50.61;98969.14;1744619;82;20944;-65
2021/08/01 06:26:03;;;;;;;9.98;8.95;;;;;;;28.84;50.81;98970.83;1738656;82;21035;-64
2021/08/01 06:28:31;;;;;;;14.43;9.33;;;;;;;28.79;51.68;98976.85;1741724;82;20995;-64
2021/08/01 06:31:02;;;;;;;12.18;9.30;;;;;;;28.74;52.33;98985.68;1735133;82;21067;-64
2021/08/01 06:33:30;;;;;;;13.75;9.83;;;;;;;28.62;52.53;98991.16;1674431;85;21566;-64
2021/08/01 06:35:57;;;;;;;12.45;9.13;;;;;;;28.63;52.90;98998.33;1749917;82;21035;-63
2021/08/01 06:38:23;;;;;;;11.63;10.35;;;;;;;28.70;52.89;98998.31;1753191;82;21826;-64
2021/08/01 06:40:50;;;;;;;11.65;10.40;;;;;;;28.65;52.43;99000.93;1752964;82;21023;-64
2021/08/01 06:43:17;;;;;;;10.78;9.15;;;;;;;28.54;53.10;99003.00;1751043;82;21443;-64
2021/08/01 06:45:43;;;;;;;17.57;11.68;;;;;;;28.56;53.30;99004.77;1728429;82;20987;-64
2021/08/01 06:49:21;;;;;;;;;;;;;;;28.58;52.94;98999.58;1803679;79;22971;-64
2021/08/01 06:51:48;;;;;;;17.90;14.53;;;;;;;28.47;52.90;98998.04;1752043;81;20507;-66
2021/08/01 06:54:14;;;;;;;17.60;12.58;;;;;;;28.32;53.84;98998.72;1728760;83;21125;-66
2021/08/01 06:56:41;;;;;;;14.95;11.80;;;;;;;28.31;53.96;98991.52;1730833;82;21121;-65
2021/08/01 06:59:07;;;;;;;14.55;11.15;;;;;;;28.24;53.95;98993.55;1731132;83;21085;-65
2021/08/01 07:09:22;;;;;;;;;;;;;;;28.14;55.13;98991.01;1803906;79;22867;-64
2021/08/01 07:11:49;;;;;;;13.20;10.60;;;;;;;28.06;54.73;98988.81;1722986;80;20137;-63
2021/08/01 07:14:16;;;;;;;12.03;10.75;;;;;;;27.94;55.57;98985.08;1712519;83;21078;-65
2021/08/01 07:16:44;;;;;;;12.30;9.93;;;;;;;27.98;54.95;98985.87;1729797;81;21079;-63
2021/08/01 07:19:11;;;;;;;11.48;9.75;;;;;;;28.00;55.33;98990.44;1715920;82;21043;-63
2021/08/01 07:21:37;;;;;;;15.20;10.63;;;;;;;27.95;55.69;98980.29;1729307;81;21138;-64
2021/08/01 07:24:05;;;;;;;14.83;11.15;;;;;;;27.89;56.60;98980.49;1728661;83;21082;-65
2021/08/01 07:26:32;;;;;;;14.70;9.95;;;;;;;28.02;56.05;98975.44;1692735;82;21053;-64
2021/08/01 07:28:58;;;;;;;16.65;10.25;;;;;;;28.31;55.30;98973.92;1752013;82;21528;-65
2021/08/01 07:31:24;;;;;;;11.83;9.90;;;;;;;28.65;55.68;98970.13;1744670;81;21092;-65
2021/08/01 07:33:51;;;;;;;14.98;10.10;;;;;;;29.02;54.05;98970.84;1742038;82;21003;-65
2021/08/01 07:36:17;;;;;;;11.75;10.08;;;;;;;29.44;53.02;98965.47;1746041;81;21100;-64
2021/08/01 07:38:43;;;;;;;13.93;10.18;;;;;;;29.76;52.03;98960.91;1735864;82;21021;-64
2021/08/01 07:41:10;;;;;;;12.60;10.05;;;;;;;29.94;51.19;98962.92;1742860;81;21023;-65
2021/08/01 07:43:36;;;;;;;13.88;10.20;;;;;;;30.15;51.33;98963.25;1736540;82;20995;-65
2021/08/01 07:49:30;;;;;;;12.37;8.90;;;;;;;30.65;51.22;98959.76;1785121;79;23028;-63
2021/08/01 07:51:56;;;;;;;11.73;9.30;;;;;;;30.79;49.23;98963.14;1775485;80;21114;-64
2021/08/01 07:54:23;;;;;;;13.58;9.60;;;;;;;30.87;49.39;98966.64;1778974;80;21640;-64
2021/08/01 07:56:49;;;;;;;12.37;9.40;;;;;;;31.17;49.92;98965.17;1805142;79;21041;-63
2021/08/01 07:59:16;;;;;;;14.90;9.78;;;;;;;31.37;48.10;98965.20;1720412;82;21589;-63
2021/08/01 08:01:42;;;;;;;11.75;9.35;;;;;;;31.29;48.76;98970.16;1732117;81;21099;-64
2021/08/01 08:04:08;;;;;;;12.98;8.80;;;;;;;31.30;48.72;98966.73;1705473;84;21535;-64
2021/08/01 08:06:36;;;;;;;16.17;9.35;;;;;;;31.42;47.96;98970.34;1706588;81;21170;-65
2021/08/01 08:09:04;;;;;;;11.08;8.65;;;;;;;31.54;48.80;98972.54;1739136;81;21592;-64
2021/08/01 08:11:31;;;;;;;12.05;8.90;;;;;;;31.62;47.61;98973.20;1734635;83;21079;-64
2021/08/01 08:13:59;;;;;;;12.73;8.83;;;;;;;31.45;47.78;98987.76;1734744;83;21112;-64
2021/08/01 08:16:25;;;;;;;10.88;8.45;;;;;;;31.23;47.61;98989.35;1723657;83;21060;-65
2021/08/01 08:18:52;;;;;;;13.43;9.40;;;;;;;31.07;47.99;98986.59;1719761;81;21091;-64
2021/08/01 08:21:19;;;;;;;14.03;9.00;;;;;;;30.91;48.35;98981.42;1720892;83;21107;-64
2021/08/01 08:23:45;;;;;;;12.70;9.05;;;;;;;30.77;49.81;98978.84;1730827;83;21104;-64
2021/08/01 08:26:11;;;;;;;11.00;8.63;;;;;;;30.60;49.96;98975.09;1748331;81;21070;-64
2021/08/01 08:28:38;;;;;;;13.90;9.20;;;;;;;30.57;50.53;98974.55;1735719;81;21068;-64
2021/08/01 08:31:05;;;;;;;11.15;9.10;;;;;;;30.70;49.57;98974.74;1723996;81;21127;-64
2021/08/01 08:33:31;;;;;;;12.90;9.18;;;;;;;30.90;49.43;98975.01;1717405;83;21594;-64
2021/08/01 08:35:57;;;;;;;14.68;9.15;;;;;;;31.08;49.34;98971.33;1722628;83;21111;-64
2021/08/01 08:38:24;;;;;;;11.83;8.60;;;;;;;31.18;48.25;98970.19;1712666;83;21575;-64
2021/08/01 08:40:52;;;;;;;12.85;9.33;;;;;;;31.17;48.32;98972.20;1705425;83;21103;-63
2021/08/01 08:43:18;;;;;;;16.42;9.83;;;;;;;31.15;48.54;98980.85;1708843;81;21501;-64
2021/08/01 08:45:45;;;;;;;12.90;9.20;;;;;;;31.22;48.94;98986.35;1725567;81;21052;-64
2021/08/01 08:48:15;;;;;;;10.78;8.75;;;;;;;31.14;48.08;98970.24;1700848;83;21108;-63
2021/08/01 08:50:40;;;;;;;12.63;8.85;;;;;;;31.25;48.81;98971.46;1691297;82;21564;-63
2021/08/01 08:53:07;;;;;;;13.45;8.88;;;;;;;31.37;48.35;98968.81;1705449;83;21112;-63
2021/08/01 08:55:35;;;;;;;14.90;8.60;;;;;;;31.48;48.56;98973.63;1673074;85;21053;-64
2021/08/01 08:58:05;;;;;;;10.65;8.43;;;;;;;31.63;47.87;98974.80;1695356;82;21048;-64
2021/08/01 09:00:33;;;;;;;14.35;8.13;;;;;;;31.75;48.49;98967.11;1718184;83;21005;-64
2021/08/01 09:03:00;;;;;;;12.78;8.80;;;;;;;31.89;47.09;98972.45;1700519;83;21576;-64
2021/08/01 09:05:26;;;;;;;13.60;8.25;;;;;;;31.87;47.05;98974.30;1712675;82;21013;-64
2021/08/01 09:07:53;;;;;;;10.60;8.25;;;;;;;31.87;46.88;98974.30;1718501;83;21651;-63
2021/08/01 09:10:19;;;;;;;14.43;9.13;;;;;;;31.79;47.12;98978.48;1703622;82;21056;-64
2021/08/01 09:12:48;;;;;;;11.53;8.23;;;;;;;31.76;47.60;98982.16;1689728;85;21726;-65
2021/08/01 09:15:28;;;;;;;11.63;8.20;;;;;;;31.76;47.88;98981.36;1707250;82;21004;-64
2021/08/01 09:17:56;;;;;;;12.43;9.00;;;;;;;31.75;47.40;98965.70;1691219;83;21061;-64
2021/08/01 09:20:32;;;;;;;14.10;8.68;;;;;;;31.57;47.71;98968.86;1704560;82;21124;-64
2021/08/01 09:23:07;;;;;;;;;;;;;;;31.38;48.67;98980.86;1764170;81;21063;-65
2021/08/01 09:25:43;;;;;;;11.30;8.15;;;;;;;31.42;49.19;98986.61;1751583;79;20401;-65
2021/08/01 09:28:24;;;;;;;14.23;8.18;;;;;;;31.34;48.89;98982.94;1746945;81;21035;-63
2021/08/01 09:31:02;;;;;;;18.42;9.40;;;;;;;31.21;49.18;98977.75;1763540;81;21027;-64
2021/08/01 09:33:43;;;;;;;11.20;8.15;;;;;;;31.13;49.43;98977.69;1724298;82;21007;-64
2021/08/01 09:36:19;;;;;;;10.75;7.22;;;;;;;31.13;50.50;98981.91;1753340;81;21048;-64
2021/08/01 09:38:53;;;;;;;11.40;8.28;;;;;;;31.31;50.54;98986.00;1763929;81;20995;-64
2021/08/01 09:41:35;;;;;;;10.98;7.80;;;;;;;31.57;49.83;98983.72;1754199;81;21071;-62
2021/08/01 09:44:09;;;;;;;14.75;7.47;;;;;;;31.69;48.78;98984.31;1743968;81;21051;-64
2021/08/01 09:46:43;;;;;;;10.98;7.22;;;;;;;31.78;49.42;98981.74;1744899;81;21071;-65
2021/08/01 09:49:18;;;;;;;12.03;7.40;;;;;;;31.98;48.48;98984.73;1742209;81;21035;-63
2021/08/01 09:51:50;;;;;;;11.38;6.95;;;;;;;32.08;47.70;98989.98;1741429;81;21051;-63
2021/08/01 09:54:18;;;;;;;10.68;6.95;;;;;;;32.16;47.63;98990.03;1741535;81;21456;-63
2021/08/01 09:57:01;;;;;;;14.65;7.65;;;;;;;32.25;47.25;98991.62;1769921;81;21047;-63
2021/08/01 09:59:29;;;;;;;14.40;10.40;;;;;;;32.31;47.52;98989.11;1767208;81;20976;-64
2021/08/01 10:01:57;;;;;;;12.20;7.78;;;;;;;32.28;47.44;98985.13;1739134;81;21004;-64
2021/08/01 10:04:37;;;;;;;10.75;7.58;;;;;;;32.17;47.85;98986.60;1750229;79;21031;-63
2021/08/01 10:07:14;;;;;;;13.88;8.30;;;;;;;32.17;48.71;98978.16;1761667;79;21039;-63
2021/08/01 10:09:42;;;;;;;11.15;7.70;;;;;;;32.15;49.22;98970.73;1695985;83;20992;-63
2021/08/01 10:12:09;;;;;;;10.98;8.55;;;;;;;32.08;47.82;98967.47;1753968;79;21004;-64
2021/08/01 10:14:36;;;;;;;10.88;7.67;;;;;;;31.89;48.86;98976.67;1740708;82;21043;-64
2021/08/01 10:17:03;;;;;;;11.30;7.50;;;;;;;31.64;48.19;98969.36;1785950;79;21012;-64
2021/08/01 10:19:31;;;;;;;10.55;9.45;;;;;;;31.25;49.00;98973.64;1741346;81;21086;-64
2021/08/01 10:22:00;;;;;;;16.37;9.40;;;;;;;30.99;50.39;98975.31;1755619;79;21060;-65
2021/08/01 10:24:41;;;;;;;18.42;13.75;;;;;;;30.81;50.42;98969.75;1747277;81;21003;-64
2021/08/01 10:27:09;;;;;;;17.70;13.50;;;;;;;30.62;50.77;98969.84;1794595;79;21075;-63
2021/08/01 10:29:48;;;;;;;14.50;10.35;;;;;;;30.41;51.78;98969.55;1768382;79;21569;-62
2021/08/01 10:32:18;;;;;;;23.95;18.52;;;;;;;30.19;52.12;98970.22;1754623;81;21673;-64
2021/08/01 10:35:07;;;;;;;19.42;16.70;;;;;;;29.87;52.36;98979.05;1784603;79;21035;-62
2021/08/01 10:37:41;;;;;;;60.80;51.35;;;;;;;29.55;52.95;98982.18;1777417;79;21036;-64
2021/08/01 10:40:11;;;;;;;24.80;19.73;;;;;;;29.26;53.60;98996.28;1773623;79;21005;-63
2021/08/01 10:42:40;;;;;;;13.18;10.65;;;;;;;29.02;54.59;98994.66;1730645;81;21568;-64
2021/08/01 10:45:09;;;;;;;13.25;9.15;;;;;;;28.85;55.58;99000.41;1746820;81;20996;-64
2021/08/01 10:47:35;;;;;;;15.90;11.60;;;;;;;28.77;56.24;99003.09;1751186;81;21442;-63
2021/08/01 10:50:05;;;;;;;18.30;11.30;;;;;;;28.73;55.91;99000.31;1725359;80;21538;-64
2021/08/01 10:52:35;;;;;;;19.40;13.78;;;;;;;28.61;56.55;98999.35;1722145;82;21069;-63
2021/08/01 10:55:06;;;;;;;15.30;9.15;;;;;;;28.50;57.14;99011.21;1721739;82;21003;-64
2021/08/01 10:57:33;;;;;;;17.67;9.78;;;;;;;28.37;57.46;99029.09;1724632;82;21023;-63
2021/08/01 11:00:07;;;;;;;11.12;6.75;;;;;;;28.23;56.30;99031.16;1730557;82;20999;-63
2021/08/01 11:02:35;;;;;;;9.53;5.17;;;;;;;27.97;54.64;99027.63;1733083;82;21058;-64
2021/08/01 11:05:33;;;;;;;9.43;5.95;;;;;;;27.61;53.97;99013.53;1732580;82;21530;-64
2021/08/01 11:08:00;;;;;;;9.08;5.70;;;;;;;27.17;54.73;98997.98;1712965;83;21044;-63
2021/08/01 11:10:29;;;;;;;12.05;7.10;;;;;;;26.73;56.17;98978.02;1717321;82;21035;-62
2021/08/01 11:12:55;;;;;;;9.30;6.15;;;;;;;26.48;57.35;98977.17;1715924;82;21103;-63
2021/08/01 11:15:45;;;;;;;9.48;5.20;;;;;;;26.42;58.31;98985.75;1742475;82;21043;-62
2021/08/01 11:18:11;;;;;;;9.60;6.20;;;;;;;26.39;59.46;98987.34;1741508;82;21003;-62
2021/08/01 11:20:46;;;;;;;9.85;5.40;;;;;;;26.15;59.98;98992.20;1676622;85;21044;-62
2021/08/01 11:23:13;;;;;;;8.77;5.50;;;;;;;25.84;61.15;98995.66;1725168;82;21031;-61
2021/08/01 11:25:42;;;;;;;10.75;6.03;;;;;;;25.49;61.87;99000.41;1741958;82;21503;-62
2021/08/01 11:28:13;;;;;;;16.12;11.95;;;;;;;25.26;62.62;98989.50;1726271;82;21043;-61
2021/08/01 11:30:54;;;;;;;11.20;6.33;;;;;;;25.22;63.70;98986.69;1719210;82;20996;-62
2021/08/01 11:33:45;;;;;;;9.45;6.00;;;;;;;25.28;64.06;98969.04;1731429;82;20948;-62
2021/08/01 11:36:27;;;;;;;10.65;6.58;;;;;;;25.30;64.25;98964.45;1721244;82;21526;-62
2021/08/01 11:38:59;;;;;;;12.00;6.22;;;;;;;25.26;64.69;98956.08;1728776;82;21035;-63
2021/08/01 11:41:35;;;;;;;9.55;5.60;;;;;;;25.26;64.60;98954.69;1715332;84;21126;-63
2021/08/01 11:44:21;;;;;;;12.07;6.83;;;;;;;25.29;64.81;98954.52;1671175;85;21119;-63
2021/08/01 11:47:00;;;;;;;8.98;5.97;;;;;;;25.38;65.54;98967.50;1730451;82;21039;-62